Bookmark and Share
Track history (hours):
 

Komokwa

Last reported at 2014-Apr-01 18:10 UTC. Time now 2014-Apr-24 02:22 UTC.
Position N 20°29' W 105°38'.
Warning: this ship's position is 22 days out of date.

Length 41 m; draft 2.4 m.

Type: Ship. MMSI: 378111827.

NotesDate/timePositionNaut miles runAvg speedWind from/ knotsBaromVisibWave heightAir tempDewpointWater temp
2014-Apr-01 18:10N 20°29' W 105°38'7 6.9
2014-Apr-01 17:10N 20°32' W 105°32'14 8.4
2014-Apr-01 15:33N 20°38' W 105°18'4 3.9
2014-Apr-01 14:33N 20°40' W 105°15'0 0.0
2014-Apr-01 13:33N 20°40' W 105°15'0 0.0
2014-Apr-01 12:32N 20°40' W 105°15'0 0.0
2014-Apr-01 11:32N 20°40' W 105°15'0 0.0
2014-Apr-01 10:32N 20°40' W 105°15'0 0.0
2014-Apr-01 09:32N 20°40' W 105°15'0 0.0
2014-Apr-01 08:32N 20°40' W 105°15'0 0.0
2014-Apr-01 07:32N 20°40' W 105°15'0 0.0
2014-Apr-01 06:32N 20°40' W 105°15'0 0.0
2014-Apr-01 05:32N 20°40' W 105°15'0 0.0
2014-Apr-01 04:32N 20°40' W 105°15'0 0.0
2014-Apr-01 03:32N 20°40' W 105°15'0 0.0
2014-Apr-01 02:32N 20°40' W 105°15'0 0.0
2014-Apr-01 01:32N 20°40' W 105°15'0 0.0
2014-Apr-01 00:32N 20°40' W 105°15'0 0.0
2014-Mar-31 23:32N 20°40' W 105°15'0 0.0
2014-Mar-31 22:32N 20°40' W 105°15'0 0.0
2014-Mar-31 21:32N 20°40' W 105°15'0 0.0
2014-Mar-31 20:32N 20°40' W 105°15'0 0.0
2014-Mar-31 19:32N 20°40' W 105°15'0 0.0
2014-Mar-31 18:32N 20°40' W 105°15'0 0.0
2014-Mar-31 17:23N 20°40' W 105°15'0 0.0
2014-Mar-31 16:32N 20°40' W 105°15'0 0.0
2014-Mar-31 15:32N 20°40' W 105°15'0 0.0
2014-Mar-31 14:29N 20°40' W 105°15'0 0.0
2014-Mar-31 13:32N 20°40' W 105°15'0 0.0
2014-Mar-31 12:32N 20°40' W 105°15'0 0.0
2014-Mar-31 11:32N 20°40' W 105°15'0 0.0
2014-Mar-31 10:32N 20°40' W 105°15'0 0.0
2014-Mar-31 09:32N 20°40' W 105°15'0 0.0
2014-Mar-31 08:32N 20°40' W 105°15'0 0.0
2014-Mar-31 07:32N 20°40' W 105°15'0 0.0
2014-Mar-31 06:20N 20°40' W 105°15'0 0.0
2014-Mar-31 05:32N 20°40' W 105°15'0 0.0
2014-Mar-31 04:32N 20°40' W 105°15'0 0.0
2014-Mar-31 03:29N 20°40' W 105°15'0 0.0
2014-Mar-31 02:29N 20°40' W 105°15'0 0.0
2014-Mar-31 01:32N 20°40' W 105°15'0 0.0
2014-Mar-31 00:33N 20°40' W 105°15'2 2.1
2014-Mar-30 23:33N 20°38' W 105°15'5 5.2
2014-Mar-30 22:33N 20°33' W 105°17'0 0.0
2014-Mar-30 21:33N 20°33' W 105°17'0 0.0
2014-Mar-30 20:33N 20°33' W 105°17'0 0.0
2014-Mar-30 19:32N 20°33' W 105°17'0 0.1
2014-Mar-30 18:33N 20°33' W 105°17'4 4.0
2014-Mar-30 17:33N 20°37' W 105°16'3 3.2
2014-Mar-30 16:31N 20°40' W 105°15'0 0.0
2014-Mar-30 15:28N 20°40' W 105°15'0 0.0
2014-Mar-30 14:31N 20°40' W 105°15'0 0.0
2014-Mar-30 13:31N 20°40' W 105°15'0 0.0
2014-Mar-30 12:31N 20°40' W 105°15'0 0.0
2014-Mar-30 11:31N 20°40' W 105°15'0 0.0
2014-Mar-30 10:31N 20°40' W 105°15'0 0.0
2014-Mar-30 09:28N 20°40' W 105°15'0 0.0
2014-Mar-30 08:31N 20°40' W 105°15'0 0.0
2014-Mar-30 07:31N 20°40' W 105°15'0 0.0
2014-Mar-30 06:31N 20°40' W 105°15'0 0.0
2014-Mar-30 05:31N 20°40' W 105°15'0 0.0
2014-Mar-30 04:28N 20°40' W 105°15'0 0.0
2014-Mar-30 03:22N 20°40' W 105°15'0 0.0
2014-Mar-30 02:31N 20°40' W 105°15'0 0.0
2014-Mar-30 01:28N 20°40' W 105°15'0 0.0
2014-Mar-30 00:31N 20°40' W 105°15'0 0.0
2014-Mar-29 23:31N 20°40' W 105°15'0 0.0
2014-Mar-29 22:31N 20°40' W 105°15'0 0.0
2014-Mar-29 21:31N 20°40' W 105°15'0 0.0
2014-Mar-29 20:31N 20°40' W 105°15'0 0.0
2014-Mar-29 19:31N 20°40' W 105°15'0 0.0
2014-Mar-29 18:31N 20°40' W 105°15'0 0.0
2014-Mar-29 17:31N 20°40' W 105°15'0 0.0
2014-Mar-29 16:31N 20°40' W 105°15'0 0.0
2014-Mar-29 15:31N 20°40' W 105°15'0 0.0
2014-Mar-29 14:31N 20°40' W 105°15'0 0.0
2014-Mar-29 13:31N 20°40' W 105°15'0 0.0
2014-Mar-29 12:28N 20°40' W 105°15'0 0.0
2014-Mar-29 11:31N 20°40' W 105°15'0 0.0
2014-Mar-29 10:31N 20°40' W 105°15'0 0.0
2014-Mar-29 09:31N 20°40' W 105°15'0 0.0
2014-Mar-29 08:31N 20°40' W 105°15'0 0.0
2014-Mar-29 07:31N 20°40' W 105°15'0 0.0
2014-Mar-29 06:31N 20°40' W 105°15'0 0.0
2014-Mar-29 05:31N 20°40' W 105°15'0 0.0
2014-Mar-29 04:31N 20°40' W 105°15'0 0.0
2014-Mar-29 03:31N 20°40' W 105°15'0 0.0
2014-Mar-29 02:31N 20°40' W 105°15'0 0.0
2014-Mar-29 01:31N 20°40' W 105°15'0 0.0
2014-Mar-29 00:31N 20°40' W 105°15'0 0.0
2014-Mar-28 23:31N 20°40' W 105°15'0 0.0
2014-Mar-28 22:31N 20°40' W 105°15'0 0.0
2014-Mar-28 21:31N 20°40' W 105°15'0 0.0
2014-Mar-28 20:31N 20°40' W 105°15'0 0.0
2014-Mar-28 19:31N 20°40' W 105°15'0 0.3
2014-Mar-28 18:32N 20°40' W 105°15'0 0.0
2014-Mar-28 17:32N 20°40' W 105°15'0 0.3
2014-Mar-28 16:33N 20°39' W 105°15'0 0.1
2014-Mar-28 15:32N 20°39' W 105°15'0 0.1
2014-Mar-28 14:32N 20°39' W 105°14'1 0.6
2014-Mar-28 13:31N 20°40' W 105°15'0 0.0
2014-Mar-28 12:31N 20°40' W 105°15'0 0.0
2014-Mar-28 11:28N 20°40' W 105°15'0 0.0
2014-Mar-28 10:25N 20°40' W 105°15'0 0.0
2014-Mar-28 09:31N 20°40' W 105°15'0 0.0
2014-Mar-28 08:31N 20°40' W 105°15'0 0.0
2014-Mar-28 07:31N 20°40' W 105°15'0 0.0
2014-Mar-28 06:31N 20°40' W 105°15'0 0.0
2014-Mar-28 05:31N 20°40' W 105°15'0 0.0
2014-Mar-28 04:31N 20°40' W 105°15'0 0.0
2014-Mar-28 03:31N 20°40' W 105°15'0 0.0
2014-Mar-28 02:25N 20°40' W 105°15'0 0.0
2014-Mar-28 01:28N 20°40' W 105°15'0 0.0
2014-Mar-28 00:31N 20°40' W 105°15'0 0.0
2014-Mar-27 23:31N 20°40' W 105°15'0 0.0
2014-Mar-27 22:31N 20°40' W 105°15'0 0.0
2014-Mar-27 21:31N 20°40' W 105°15'0 0.0
2014-Mar-27 20:31N 20°40' W 105°15'0 0.0
2014-Mar-27 19:31N 20°40' W 105°15'0 0.0
2014-Mar-27 18:31N 20°40' W 105°15'0 0.0
2014-Mar-27 17:31N 20°40' W 105°15'0 0.0
2014-Mar-27 16:25N 20°40' W 105°15'0 0.0
2014-Mar-27 15:28N 20°40' W 105°15'0 0.0
2014-Mar-27 14:31N 20°40' W 105°15'0 0.0
2014-Mar-27 13:31N 20°40' W 105°15'0 0.0
2014-Mar-27 12:31N 20°40' W 105°15'0 0.0
2014-Mar-27 11:31N 20°40' W 105°15'0 0.0
2014-Mar-27 10:31N 20°40' W 105°15'0 0.0
2014-Mar-27 09:31N 20°40' W 105°15'0 0.0
2014-Mar-27 08:31N 20°40' W 105°15'0 0.0
2014-Mar-27 07:31N 20°40' W 105°15'0 0.0
2014-Mar-27 06:31N 20°40' W 105°15'0 0.0
2014-Mar-27 05:13N 20°40' W 105°15'0 0.0
2014-Mar-27 04:28N 20°40' W 105°15'0 0.0
2014-Mar-27 03:28N 20°40' W 105°15'0 0.0
2014-Mar-27 02:31N 20°40' W 105°15'0 0.0
2014-Mar-27 01:31N 20°40' W 105°15'0 0.0
2014-Mar-27 00:31N 20°40' W 105°15'0 0.0
2014-Mar-26 23:31N 20°40' W 105°15'0 0.0
2014-Mar-26 20:31N 20°40' W 105°15'0 0.0
2014-Mar-26 19:28N 20°40' W 105°15'0 0.0
2014-Mar-26 17:31N 20°40' W 105°15'0 0.0
2014-Mar-26 16:31N 20°40' W 105°15'0 0.0
2014-Mar-26 15:31N 20°40' W 105°15'0 0.0
2014-Mar-26 14:31N 20°40' W 105°15'0 0.0
2014-Mar-26 13:31N 20°40' W 105°15'0 0.0
2014-Mar-26 12:31N 20°40' W 105°15'0 0.0
2014-Mar-26 11:31N 20°40' W 105°15'0 0.0
2014-Mar-26 10:31N 20°40' W 105°15'0 0.0
2014-Mar-26 09:31N 20°40' W 105°15'0 0.0
2014-Mar-26 08:22N 20°40' W 105°15'0 0.0
2014-Mar-26 07:31N 20°40' W 105°15'0 0.0
2014-Mar-26 00:31N 20°40' W 105°15'0 0.0
2014-Mar-25 23:28N 20°40' W 105°15'0 0.0
2014-Mar-25 22:31N 20°40' W 105°15'0 0.0
2014-Mar-25 21:31N 20°40' W 105°15'0 0.0
2014-Mar-25 20:31N 20°40' W 105°15'0 0.0
2014-Mar-25 19:31N 20°40' W 105°15'0 0.0
2014-Mar-25 17:31N 20°40' W 105°15'0 0.0
2014-Mar-25 16:31N 20°40' W 105°15'0 0.0
2014-Mar-25 15:31N 20°40' W 105°15'0 0.0
2014-Mar-25 14:31N 20°40' W 105°15'0 0.0
2014-Mar-25 13:31N 20°40' W 105°15'0 0.0
2014-Mar-25 12:28N 20°40' W 105°15'0 0.0
2014-Mar-25 11:31N 20°40' W 105°15'0 0.0
2014-Mar-25 10:31N 20°40' W 105°15'0 0.0
2014-Mar-25 09:31N 20°40' W 105°15'0 0.0
2014-Mar-25 08:31N 20°40' W 105°15'0 0.0
2014-Mar-25 07:28N 20°40' W 105°15'0 0.0
2014-Mar-25 06:31N 20°40' W 105°15'0 0.0
2014-Mar-25 05:31N 20°40' W 105°15'0 0.0
2014-Mar-25 04:31N 20°40' W 105°15'0 0.0
2014-Mar-25 03:31N 20°40' W 105°15'0 0.0
2014-Mar-25 02:31N 20°40' W 105°15'0 0.0
2014-Mar-25 01:31N 20°40' W 105°15'0 0.0
2014-Mar-24 16:34N 20°40' W 105°15'0 0.0
2014-Mar-22 20:25N 20°40' W 105°15'  

Dump ship's entire track history

sailing weather and tide predictions

Komokwa — ZJL8536 — position and weather